createdAt,value
2023-03-11T00:00:25.449Z,0.70
2023-03-11T00:01:26.928Z,0.50
2023-03-11T00:02:28.319Z,0.50
2023-03-11T00:03:29.748Z,0.60
2023-03-11T00:04:31.177Z,0.70
2023-03-11T00:05:34.478Z,0.60
2023-03-11T00:06:36.293Z,0.70
2023-03-11T00:07:39.778Z,0.70
2023-03-11T00:08:41.283Z,0.70
2023-03-11T00:09:42.688Z,0.50
2023-03-11T00:10:44.958Z,0.50
2023-03-11T00:11:46.269Z,0.50
2023-03-11T00:12:47.627Z,0.83
2023-03-11T00:13:49.128Z,0.57
2023-03-11T00:14:50.918Z,0.50
2023-03-11T00:15:55.776Z,0.67
2023-03-11T00:16:57.409Z,0.40
2023-03-11T00:17:59.123Z,0.80
2023-03-11T00:19:00.455Z,0.80
2023-03-11T00:20:02.033Z,0.60
2023-03-11T00:21:03.476Z,0.90
2023-03-11T00:22:04.838Z,0.60
2023-03-11T00:23:06.863Z,0.60
2023-03-11T00:24:08.345Z,0.67
2023-03-11T00:25:10.576Z,0.50
2023-03-11T00:26:12.009Z,0.50
2023-03-11T00:27:13.929Z,0.50
2023-03-11T00:28:15.751Z,0.47
2023-03-11T00:29:17.087Z,0.77
2023-03-11T00:30:19.276Z,0.70
2023-03-11T00:31:20.786Z,0.60
2023-03-11T00:32:22.171Z,0.60
2023-03-11T00:33:23.556Z,0.70
2023-03-11T00:34:25.708Z,0.63
2023-03-11T00:35:29.972Z,0.60
2023-03-11T00:36:33.608Z,0.83
2023-03-11T00:37:35.011Z,0.77
2023-03-11T00:38:36.339Z,0.87
2023-03-11T00:39:37.658Z,0.80
2023-03-11T00:40:39.368Z,0.60
2023-03-11T00:41:40.737Z,0.67
2023-03-11T00:42:42.098Z,0.70
2023-03-11T00:43:44.981Z,0.70
2023-03-11T00:44:46.269Z,0.90
2023-03-11T00:45:47.817Z,0.93
2023-03-11T00:46:49.711Z,0.90
2023-03-11T00:47:51.615Z,0.60
2023-03-11T00:48:53.274Z,0.63
2023-03-11T00:49:54.601Z,0.83
2023-03-11T00:50:55.925Z,0.70
2023-03-11T00:51:57.257Z,0.60
2023-03-11T00:52:58.805Z,0.70
2023-03-11T00:54:01.303Z,0.93
2023-03-11T00:55:04.202Z,0.60
2023-03-11T00:56:06.742Z,0.83
2023-03-11T00:57:08.814Z,0.73
2023-03-11T00:58:10.919Z,0.80
2023-03-11T00:59:22.254Z,0.70
2023-03-11T01:00:24.489Z,0.70
2023-03-11T01:01:25.892Z,0.60
2023-03-11T01:02:27.299Z,0.83
2023-03-11T01:03:29.566Z,0.73
2023-03-11T01:04:30.988Z,0.77
2023-03-11T01:05:33.254Z,0.73
2023-03-11T01:06:44.864Z,0.77
2023-03-11T01:07:46.890Z,0.90
2023-03-11T01:08:48.240Z,0.60
2023-03-11T01:09:51.013Z,0.80
2023-03-11T01:10:52.757Z,0.70
2023-03-11T01:11:54.253Z,0.70
2023-03-11T01:12:55.920Z,0.60
2023-03-11T01:14:03.346Z,0.60
2023-03-11T01:15:05.374Z,0.80
2023-03-11T01:16:08.046Z,0.80
2023-03-11T01:17:09.509Z,0.90
2023-03-11T01:18:10.840Z,0.70
2023-03-11T01:19:12.329Z,0.83
2023-03-11T01:20:13.892Z,0.80
2023-03-11T01:21:15.326Z,1.17
2023-03-11T01:22:17.157Z,0.77
2023-03-11T01:23:21.020Z,0.80
2023-03-11T01:24:22.477Z,0.80
2023-03-11T01:25:24.203Z,0.80
2023-03-11T01:26:25.537Z,1.27
2023-03-11T01:27:30.992Z,0.80
2023-03-11T01:28:32.466Z,1.17
2023-03-11T01:29:33.912Z,0.80
2023-03-11T01:30:36.462Z,0.97
2023-03-11T01:31:37.935Z,0.77
2023-03-11T01:32:39.526Z,0.70
2023-03-11T01:33:41.595Z,0.90
2023-03-11T01:34:43.067Z,0.67
2023-03-11T01:35:45.018Z,1.00
2023-03-11T01:36:46.363Z,0.80
2023-03-11T01:37:47.810Z,0.90
2023-03-11T01:38:49.269Z,0.83
2023-03-11T01:39:50.598Z,1.87
2023-03-11T01:40:51.955Z,0.67
2023-03-11T01:41:53.746Z,0.80
2023-03-11T01:42:55.361Z,0.70
2023-03-11T01:43:56.737Z,0.90
2023-03-11T01:45:01.522Z,0.90
2023-03-11T01:46:09.385Z,0.70
2023-03-11T01:47:11.021Z,0.83
2023-03-11T01:48:12.672Z,0.97
2023-03-11T01:49:14.201Z,0.80
2023-03-11T01:50:15.953Z,0.80
2023-03-11T01:51:20.057Z,1.30
2023-03-11T01:52:21.511Z,0.70
2023-03-11T01:53:25.319Z,1.00
2023-03-11T01:54:34.451Z,1.20
2023-03-11T01:55:36.180Z,0.70
2023-03-11T01:56:39.234Z,0.90
2023-03-11T01:57:42.027Z,1.00
2023-03-11T01:58:46.390Z,1.03
2023-03-11T01:59:49.781Z,0.90
2023-03-11T02:00:51.119Z,0.77
2023-03-11T02:01:59.342Z,0.90
2023-03-11T02:03:02.363Z,1.10
2023-03-11T02:04:03.888Z,0.80
2023-03-11T02:05:05.592Z,0.90
2023-03-11T02:06:09.549Z,1.03
2023-03-11T02:07:11.596Z,1.00
2023-03-11T02:08:12.946Z,1.07
2023-03-11T02:09:14.339Z,1.07
2023-03-11T02:10:15.881Z,1.30
2023-03-11T02:11:28.080Z,1.60
2023-03-11T02:12:31.179Z,1.13
2023-03-11T02:13:34.426Z,0.90
2023-03-11T02:14:36.190Z,0.80
2023-03-11T02:15:39.940Z,0.93
2023-03-11T02:16:41.624Z,1.10
2023-03-11T02:17:43.465Z,0.80
2023-03-11T02:18:44.805Z,1.63
2023-03-11T02:19:51.819Z,0.83
2023-03-11T02:21:14.224Z,1.10
2023-03-11T02:22:16.250Z,0.90
2023-03-11T02:23:18.639Z,1.10
2023-03-11T02:24:28.140Z,1.30
2023-03-11T02:25:44.889Z,0.90
2023-03-11T02:26:54.358Z,1.13
2023-03-11T02:27:55.861Z,1.07
2023-03-11T02:29:01.368Z,0.80
2023-03-11T02:30:03.339Z,1.00
2023-03-11T02:31:08.161Z,1.17
2023-03-11T02:32:10.951Z,1.00
2023-03-11T02:33:18.543Z,0.80
2023-03-11T02:34:23.690Z,1.03
2023-03-11T02:35:25.254Z,1.00
2023-03-11T02:36:36.429Z,1.00
2023-03-11T02:37:43.760Z,1.47
2023-03-11T02:38:45.070Z,1.10
2023-03-11T02:39:48.620Z,0.93
2023-03-11T02:40:53.026Z,1.10
2023-03-11T02:41:56.685Z,1.00
2023-03-11T02:43:00.190Z,1.20
2023-03-11T02:44:02.334Z,1.13
2023-03-11T02:45:07.926Z,1.10
2023-03-11T02:46:10.742Z,1.40
2023-03-11T02:47:12.741Z,1.43
2023-03-11T02:48:14.463Z,1.23
2023-03-11T02:49:16.201Z,1.20
2023-03-11T02:50:18.711Z,1.20
2023-03-11T02:51:20.438Z,1.07
2023-03-11T02:52:25.312Z,1.00
2023-03-11T02:53:28.675Z,0.93
2023-03-11T02:54:30.238Z,0.83
2023-03-11T02:55:32.681Z,0.90
2023-03-11T02:56:34.800Z,1.13
2023-03-11T02:57:36.143Z,0.80
2023-03-11T02:58:37.742Z,1.07
2023-03-11T02:59:39.144Z,1.03
2023-03-11T03:00:40.617Z,0.80
2023-03-11T03:01:42.953Z,0.97
2023-03-11T03:02:44.931Z,1.00
2023-03-11T03:03:46.758Z,0.90
2023-03-11T03:04:48.120Z,1.00
2023-03-11T03:05:50.049Z,1.13
2023-03-11T03:06:51.391Z,1.07
2023-03-11T03:07:52.799Z,1.10
2023-03-11T03:08:54.414Z,1.00
2023-03-11T03:09:55.834Z,0.70
2023-03-11T03:10:57.463Z,1.00
2023-03-11T03:11:58.756Z,1.10
2023-03-11T03:13:00.246Z,1.03
2023-03-11T03:14:01.660Z,1.00
2023-03-11T03:15:03.564Z,1.10
2023-03-11T03:16:05.106Z,1.03
2023-03-11T03:17:07.392Z,1.10
2023-03-11T03:18:08.817Z,1.00
2023-03-11T03:19:10.175Z,1.27
2023-03-11T03:20:12.994Z,1.23
2023-03-11T03:21:17.500Z,1.47
2023-03-11T03:22:18.975Z,1.10
2023-03-11T03:23:21.215Z,0.93
2023-03-11T03:24:22.624Z,1.10
2023-03-11T03:25:23.939Z,1.20
2023-03-11T03:26:25.939Z,0.73
2023-03-11T03:27:27.282Z,1.40
2023-03-11T03:28:28.725Z,1.13
2023-03-11T03:29:30.798Z,1.10
2023-03-11T03:30:32.141Z,1.10
2023-03-11T03:31:33.782Z,0.93
2023-03-11T03:32:36.617Z,0.83
2023-03-11T03:33:38.587Z,0.93
2023-03-11T03:34:41.443Z,0.90
2023-03-11T03:35:44.640Z,0.90
2023-03-11T03:37:08.660Z,1.10
2023-03-11T03:38:10.304Z,0.97
2023-03-11T03:39:12.896Z,0.97
2023-03-11T03:40:14.328Z,1.77
2023-03-11T03:41:15.921Z,1.00
2023-03-11T03:42:17.620Z,1.00
2023-03-11T03:43:19.128Z,1.13
2023-03-11T03:44:21.417Z,1.00
2023-03-11T03:45:22.746Z,1.33
2023-03-11T03:46:26.801Z,0.90
2023-03-11T03:47:32.076Z,1.17
2023-03-11T03:48:33.975Z,1.17
2023-03-11T03:49:38.649Z,1.30
2023-03-11T03:50:40.403Z,1.10
2023-03-11T03:51:42.983Z,1.10
2023-03-11T03:52:50.075Z,1.00
2023-03-11T03:53:51.432Z,1.00
2023-03-11T03:54:52.836Z,1.30
2023-03-11T03:55:54.658Z,1.10
2023-03-11T03:56:56.425Z,1.33
2023-03-11T03:57:58.053Z,1.00
2023-03-11T03:59:03.334Z,1.17
2023-03-11T04:00:11.722Z,1.10
2023-03-11T04:01:16.123Z,0.90
2023-03-11T04:02:17.702Z,1.10
2023-03-11T04:03:19.496Z,1.30
2023-03-11T04:04:27.026Z,1.07
2023-03-11T04:05:28.821Z,0.90
2023-03-11T04:06:30.748Z,0.87
2023-03-11T04:07:37.266Z,1.10
2023-03-11T04:08:40.513Z,1.00
2023-03-11T04:09:43.545Z,1.00
2023-03-11T04:10:55.799Z,1.30
2023-03-11T04:11:57.304Z,1.20
2023-03-11T04:12:58.716Z,1.13
2023-03-11T04:14:00.182Z,0.90
2023-03-11T04:15:01.525Z,1.23
2023-03-11T04:16:03.622Z,0.90
2023-03-11T04:17:05.472Z,1.23
2023-03-11T04:18:06.913Z,1.10
2023-03-11T04:19:08.418Z,0.90
2023-03-11T04:20:10.532Z,1.20
2023-03-11T04:21:12.181Z,1.30
2023-03-11T04:22:13.516Z,1.20
2023-03-11T04:23:15.433Z,1.57
2023-03-11T04:24:16.948Z,0.93
2023-03-11T04:25:18.295Z,0.90
2023-03-11T04:26:20.052Z,1.20
2023-03-11T04:27:21.454Z,1.17
2023-03-11T04:28:22.846Z,0.90
2023-03-11T04:29:24.856Z,1.20
2023-03-11T04:30:27.965Z,1.13
2023-03-11T04:31:31.248Z,1.23
2023-03-11T04:32:34.863Z,1.10
2023-03-11T04:33:38.096Z,0.90
2023-03-11T04:34:42.279Z,1.30
2023-03-11T04:35:44.765Z,1.13
2023-03-11T04:36:46.192Z,1.00
2023-03-11T04:37:49.928Z,1.30
2023-03-11T04:38:51.402Z,1.00
2023-03-11T04:39:53.396Z,1.13
2023-03-11T04:40:59.506Z,0.73
2023-03-11T04:42:03.603Z,1.00
2023-03-11T04:43:05.836Z,1.10
2023-03-11T04:44:07.248Z,1.10
2023-03-11T04:45:09.064Z,1.47
2023-03-11T04:46:10.607Z,1.00
2023-03-11T04:47:13.030Z,1.07
2023-03-11T04:48:14.929Z,1.17
2023-03-11T04:49:16.359Z,0.97
2023-03-11T04:50:18.347Z,1.37
2023-03-11T04:51:20.056Z,1.30
2023-03-11T04:52:21.600Z,0.90
2023-03-11T04:53:23.184Z,1.23
2023-03-11T04:54:25.019Z,1.00
2023-03-11T04:55:26.333Z,1.17
2023-03-11T04:56:27.907Z,1.10
2023-03-11T04:57:29.210Z,1.30
2023-03-11T04:58:31.860Z,1.13
2023-03-11T04:59:33.240Z,1.20
2023-03-11T05:00:35.105Z,1.33
2023-03-11T05:01:41.190Z,1.37
2023-03-11T05:02:43.632Z,0.90
2023-03-11T05:03:46.391Z,1.30
2023-03-11T05:04:47.938Z,1.20
2023-03-11T05:05:50.181Z,1.20
2023-03-11T05:06:54.264Z,1.17
2023-03-11T05:07:58.423Z,1.47
2023-03-11T05:09:00.114Z,2.13
2023-03-11T05:10:02.286Z,1.60
2023-03-11T05:11:04.574Z,1.20
2023-03-11T05:12:06.537Z,1.30
2023-03-11T05:13:10.004Z,1.17
2023-03-11T05:14:13.334Z,1.40
2023-03-11T05:15:14.833Z,1.57
2023-03-11T05:16:16.296Z,1.30
2023-03-11T05:17:19.332Z,1.10
2023-03-11T05:18:22.069Z,1.33
2023-03-11T05:19:34.935Z,1.40
2023-03-11T05:20:43.040Z,1.20
2023-03-11T05:21:45.825Z,1.30
2023-03-11T05:22:47.289Z,1.30
2023-03-11T05:23:48.648Z,1.00
2023-03-11T05:24:50.032Z,1.10
2023-03-11T05:25:51.447Z,1.80
2023-03-11T05:26:53.129Z,1.17
2023-03-11T05:27:54.517Z,1.30
2023-03-11T05:28:56.031Z,1.57
2023-03-11T05:29:57.494Z,1.13
2023-03-11T05:31:00.889Z,1.10
2023-03-11T05:32:04.272Z,1.47
2023-03-11T05:33:05.686Z,1.27
2023-03-11T05:34:07.027Z,1.40
2023-03-11T05:35:08.585Z,1.40
2023-03-11T05:36:10.540Z,1.30
2023-03-11T05:37:15.544Z,1.50
2023-03-11T05:38:17.343Z,1.10
2023-03-11T05:39:18.879Z,1.10
2023-03-11T05:40:20.653Z,1.20
2023-03-11T05:41:22.821Z,1.50
2023-03-11T05:42:24.526Z,1.13
2023-03-11T05:43:28.466Z,1.33
2023-03-11T05:44:33.125Z,1.30
2023-03-11T05:45:34.655Z,1.23
2023-03-11T05:46:36.927Z,1.60
2023-03-11T05:47:42.548Z,1.30
2023-03-11T05:48:46.105Z,1.33
2023-03-11T05:49:48.819Z,1.07
2023-03-11T05:50:52.115Z,0.90
2023-03-11T05:51:58.067Z,1.07
2023-03-11T05:53:00.791Z,1.10
2023-03-11T05:54:04.674Z,1.10
2023-03-11T05:55:12.425Z,1.30
2023-03-11T05:56:16.424Z,1.50
2023-03-11T05:57:18.764Z,1.67
2023-03-11T05:58:20.190Z,1.43
2023-03-11T05:59:23.451Z,1.90
2023-03-11T06:00:30.820Z,2.00
2023-03-11T06:01:35.399Z,1.67
2023-03-11T06:02:36.746Z,1.20
2023-03-11T06:03:38.895Z,1.50
2023-03-11T06:04:40.470Z,1.40
2023-03-11T06:05:46.566Z,1.10
2023-03-11T06:06:47.876Z,1.20
2023-03-11T06:07:51.489Z,1.50
2023-03-11T06:08:54.492Z,1.27
2023-03-11T06:09:57.161Z,1.30
2023-03-11T06:11:05.980Z,1.40
2023-03-11T06:12:07.933Z,1.60
2023-03-11T06:13:22.829Z,1.80
2023-03-11T06:14:28.859Z,1.30
2023-03-11T06:15:30.241Z,1.03
2023-03-11T06:16:31.729Z,1.57
2023-03-11T06:17:36.047Z,1.23
2023-03-11T06:18:37.531Z,1.60
2023-03-11T06:19:39.920Z,1.40
2023-03-11T06:20:43.144Z,1.30
2023-03-11T06:21:44.631Z,1.53
2023-03-11T06:22:48.751Z,1.57
2023-03-11T06:23:50.599Z,1.53
2023-03-11T06:24:52.196Z,1.20
2023-03-11T06:26:00.443Z,1.00
2023-03-11T06:27:04.852Z,1.30
2023-03-11T06:28:06.703Z,1.57
2023-03-11T06:29:12.325Z,1.20
2023-03-11T06:30:14.345Z,1.30
2023-03-11T06:31:27.129Z,1.40
2023-03-11T06:32:34.412Z,1.27
2023-03-11T06:33:35.790Z,1.20
2023-03-11T06:34:37.572Z,1.40
2023-03-11T06:35:39.162Z,1.20
2023-03-11T06:36:40.852Z,1.30
2023-03-11T06:37:42.268Z,1.30
2023-03-11T06:38:45.080Z,1.47
2023-03-11T06:39:46.607Z,1.17
2023-03-11T06:40:54.063Z,1.20
2023-03-11T06:41:55.747Z,1.20
2023-03-11T06:42:57.143Z,1.37
2023-03-11T06:44:00.100Z,1.23
2023-03-11T06:45:03.245Z,1.10
2023-03-11T06:46:11.620Z,1.70
2023-03-11T06:47:14.235Z,1.10
2023-03-11T06:48:15.856Z,1.23
2023-03-11T06:49:17.305Z,1.20
2023-03-11T06:50:20.056Z,1.37
2023-03-11T06:51:22.357Z,1.40
2023-03-11T06:52:23.829Z,1.23
2023-03-11T06:53:25.957Z,1.20
2023-03-11T06:54:27.445Z,1.67
2023-03-11T06:55:29.039Z,1.30
2023-03-11T06:56:30.556Z,1.10
2023-03-11T06:57:36.945Z,1.27
2023-03-11T06:58:42.001Z,1.50
2023-03-11T06:59:45.151Z,1.30
2023-03-11T07:00:49.135Z,1.33
2023-03-11T07:01:50.508Z,1.13
2023-03-11T07:02:52.047Z,1.53
2023-03-11T07:03:53.763Z,1.40
2023-03-11T07:04:56.809Z,1.50
2023-03-11T07:05:58.730Z,2.13
2023-03-11T07:07:00.333Z,1.40
2023-03-11T07:08:01.771Z,1.93
2023-03-11T07:09:03.991Z,1.50
2023-03-11T07:10:07.162Z,1.27
2023-03-11T07:11:16.408Z,1.60
2023-03-11T07:12:18.401Z,1.50
2023-03-11T07:13:19.829Z,1.40
2023-03-11T07:14:23.116Z,1.53
2023-03-11T07:15:30.106Z,1.73
2023-03-11T07:16:35.503Z,1.27
2023-03-11T07:17:54.650Z,1.60
2023-03-11T07:19:05.928Z,1.53
2023-03-11T07:20:08.211Z,1.67
2023-03-11T07:21:11.349Z,1.47
2023-03-11T07:22:13.506Z,1.30
2023-03-11T07:23:16.906Z,1.47
2023-03-11T07:26:59.741Z,1.70
2023-03-11T07:28:04.873Z,1.70
2023-03-11T07:29:11.620Z,1.87
2023-03-11T07:30:18.698Z,1.80
2023-03-11T07:31:27.911Z,1.70
2023-03-11T07:32:30.048Z,1.67
2023-03-11T07:33:34.291Z,2.00
2023-03-11T07:34:36.876Z,1.67
2023-03-11T07:35:39.124Z,1.70
2023-03-11T07:36:41.947Z,1.70
2023-03-11T07:37:43.677Z,1.70
2023-03-11T07:38:46.174Z,1.90
2023-03-11T07:39:51.296Z,2.30
2023-03-11T07:41:00.935Z,2.27
2023-03-11T07:42:21.965Z,1.80
2023-03-11T07:43:31.599Z,1.40
2023-03-11T07:44:36.193Z,1.60
2023-03-11T07:45:37.646Z,1.57
2023-03-11T07:46:40.378Z,1.53
2023-03-11T07:47:45.134Z,2.33
2023-03-11T07:48:46.690Z,1.80
2023-03-11T07:49:48.551Z,1.67
2023-03-11T07:51:00.893Z,1.83
2023-03-11T07:52:10.843Z,1.60
2023-03-11T07:53:18.635Z,1.37
2023-03-11T07:54:20.548Z,1.80
2023-03-11T07:55:21.954Z,1.40
2023-03-11T07:56:25.378Z,1.63
2023-03-11T07:57:34.127Z,1.77
2023-03-11T07:58:38.268Z,1.87
2023-03-11T07:59:45.725Z,1.50
2023-03-11T08:00:55.352Z,1.40
2023-03-11T08:02:03.403Z,1.60
2023-03-11T08:03:05.927Z,1.67
2023-03-11T08:04:40.295Z,1.47
2023-03-11T08:05:42.303Z,1.33
2023-03-11T08:06:45.472Z,1.80
2023-03-11T08:07:47.038Z,1.60
2023-03-11T08:08:49.257Z,1.57
2023-03-11T08:09:50.793Z,1.60
2023-03-11T08:10:52.521Z,2.00
2023-03-11T08:11:54.178Z,1.93
2023-03-11T08:12:55.905Z,2.10
2023-03-11T08:13:58.451Z,2.53
2023-03-11T08:14:59.886Z,3.27
2023-03-11T08:16:05.108Z,2.83
2023-03-11T08:17:06.603Z,2.33
2023-03-11T08:18:09.460Z,2.23
2023-03-11T08:19:12.979Z,1.90
2023-03-11T08:20:14.402Z,1.60
2023-03-11T08:21:17.547Z,1.73
2023-03-11T08:22:19.004Z,1.73
2023-03-11T08:23:20.517Z,1.47
2023-03-11T08:24:21.874Z,1.50
2023-03-11T08:25:23.324Z,1.77
2023-03-11T08:26:24.788Z,1.70
2023-03-11T08:27:28.053Z,1.70
2023-03-11T08:28:29.409Z,1.80
2023-03-11T08:29:30.751Z,1.87
2023-03-11T08:30:32.295Z,1.73
2023-03-11T08:31:34.948Z,1.67
2023-03-11T08:32:36.553Z,1.87
2023-03-11T08:33:37.996Z,1.57
2023-03-11T08:34:39.905Z,1.60
2023-03-11T08:35:41.417Z,1.77
2023-03-11T08:36:43.231Z,1.30
2023-03-11T08:37:44.618Z,1.50
2023-03-11T08:38:46.459Z,1.93
2023-03-11T08:39:47.908Z,1.40
2023-03-11T08:40:49.243Z,1.83
2023-03-11T08:41:50.618Z,1.30
2023-03-11T08:42:51.980Z,1.40
2023-03-11T08:43:53.366Z,1.77
2023-03-11T08:44:54.838Z,1.90
2023-03-11T08:45:56.209Z,1.60
2023-03-11T08:46:57.666Z,1.70
2023-03-11T08:47:59.125Z,1.30
2023-03-11T08:49:01.625Z,1.73
2023-03-11T08:50:08.099Z,1.83
2023-03-11T08:51:12.734Z,2.37
2023-03-11T08:52:14.205Z,1.83
2023-03-11T08:53:15.601Z,1.80
2023-03-11T08:54:17.029Z,1.50
2023-03-11T08:55:24.959Z,1.80
2023-03-11T08:56:26.580Z,1.67
2023-03-11T08:57:28.177Z,1.97
2023-03-11T08:58:30.001Z,1.80
2023-03-11T08:59:31.485Z,1.70
2023-03-11T09:00:33.061Z,1.80
2023-03-11T09:01:34.499Z,1.47
2023-03-11T09:02:36.086Z,1.67
2023-03-11T09:03:38.160Z,1.70
2023-03-11T09:04:39.520Z,1.80
2023-03-11T09:05:41.016Z,1.40
2023-03-11T09:06:45.108Z,1.60
2023-03-11T09:07:46.548Z,1.63
2023-03-11T09:08:48.648Z,2.03
2023-03-11T09:09:55.319Z,1.80
2023-03-11T09:10:57.107Z,1.70
2023-03-11T09:12:02.381Z,1.80
2023-03-11T09:13:03.908Z,1.50
2023-03-11T09:14:05.548Z,1.83
2023-03-11T09:15:07.232Z,2.03
2023-03-11T09:16:13.022Z,1.60
2023-03-11T09:17:14.395Z,1.83
2023-03-11T09:18:16.622Z,1.63
2023-03-11T09:19:17.961Z,1.60
2023-03-11T09:20:19.537Z,1.87
2023-03-11T09:21:21.202Z,1.80
2023-03-11T09:22:22.636Z,2.00
2023-03-11T09:23:24.269Z,2.10
2023-03-11T09:24:25.764Z,1.97
2023-03-11T09:25:27.153Z,2.00
2023-03-11T09:26:28.644Z,2.00
2023-03-11T09:27:30.022Z,2.33
2023-03-11T09:28:31.614Z,2.67
2023-03-11T09:29:32.966Z,1.97
2023-03-11T09:30:34.550Z,1.97
2023-03-11T09:31:36.009Z,2.57
2023-03-11T09:32:37.473Z,1.87
2023-03-11T09:33:39.652Z,1.70
2023-03-11T09:34:41.153Z,1.90
2023-03-11T09:35:42.527Z,1.83
2023-03-11T09:36:44.439Z,1.60
2023-03-11T09:37:45.857Z,1.60
2023-03-11T09:38:47.763Z,2.00
2023-03-11T09:39:49.086Z,4.13
2023-03-11T09:40:54.613Z,2.97
2023-03-11T09:41:59.036Z,1.80
2023-03-11T09:43:27.153Z,1.40
2023-03-11T09:44:28.557Z,1.60
2023-03-11T09:45:31.783Z,1.50
2023-03-11T09:46:46.107Z,1.40
2023-03-11T09:47:47.500Z,1.20
2023-03-11T09:49:09.176Z,1.30
2023-03-11T09:50:16.656Z,1.20
2023-03-11T09:51:25.732Z,1.20
2023-03-11T09:52:47.425Z,1.50
2023-03-11T09:53:54.538Z,1.53
2023-03-11T09:54:56.200Z,1.47
2023-03-11T09:55:59.171Z,1.13
2023-03-11T09:57:01.859Z,1.67
2023-03-11T09:58:11.499Z,1.30
2023-03-11T09:59:18.857Z,1.33
2023-03-11T10:00:20.625Z,2.10
2023-03-11T10:01:42.548Z,1.57
2023-03-11T10:02:44.166Z,1.50
2023-03-11T10:03:45.977Z,1.23
2023-03-11T10:04:58.052Z,1.30
2023-03-11T10:06:21.058Z,2.10
2023-03-11T10:07:25.567Z,1.37
2023-03-11T10:08:36.140Z,1.57
2023-03-11T10:09:46.490Z,1.60
2023-03-11T10:10:52.828Z,1.30
2023-03-11T10:12:03.296Z,1.30
2023-03-11T10:13:18.765Z,1.53
2023-03-11T10:14:29.647Z,1.77
2023-03-11T10:15:34.036Z,1.70
2023-03-11T10:16:40.450Z,1.30
2023-03-11T10:18:04.958Z,1.60
2023-03-11T10:19:35.840Z,1.27
2023-03-11T10:20:37.242Z,1.17
2023-03-11T10:21:44.157Z,1.30
2023-03-11T10:22:50.260Z,1.20
2023-03-11T10:24:14.421Z,1.20
2023-03-11T10:25:18.208Z,1.20
2023-03-11T10:26:21.753Z,1.10
2023-03-11T10:27:27.372Z,1.20
2023-03-11T10:28:32.741Z,1.10
2023-03-11T10:29:42.479Z,1.30
2023-03-11T10:30:57.802Z,1.40
2023-03-11T10:32:07.742Z,1.43
2023-03-11T10:33:17.976Z,1.63
2023-03-11T10:34:19.284Z,1.10
2023-03-11T10:35:20.646Z,1.27
2023-03-11T10:36:24.277Z,1.33
2023-03-11T10:37:30.889Z,1.40
2023-03-11T10:38:39.442Z,1.93
2023-03-11T10:39:41.129Z,1.60
2023-03-11T10:40:43.859Z,1.83
2023-03-11T10:41:55.630Z,1.37
2023-03-11T10:42:58.529Z,1.20
2023-03-11T10:44:02.403Z,1.30
2023-03-11T10:45:04.493Z,0.77
2023-03-11T10:46:12.256Z,1.00
2023-03-11T10:47:17.151Z,1.07
2023-03-11T10:48:19.097Z,1.00
2023-03-11T10:49:20.675Z,0.90
2023-03-11T10:50:21.999Z,1.00
2023-03-11T10:51:35.894Z,1.40
2023-03-11T10:52:44.246Z,1.20
2023-03-11T10:53:50.241Z,1.10
2023-03-11T10:55:02.815Z,1.20
2023-03-11T10:56:04.297Z,1.00
2023-03-11T10:57:07.023Z,1.20
2023-03-11T10:58:12.372Z,1.20
2023-03-11T10:59:28.131Z,1.20
2023-03-11T11:00:30.242Z,1.40
2023-03-11T11:01:31.897Z,1.03
2023-03-11T11:02:39.148Z,0.97
2023-03-11T11:03:44.560Z,1.37
2023-03-11T11:04:45.967Z,0.90
2023-03-11T11:05:56.936Z,1.00
2023-03-11T11:06:59.410Z,1.00
2023-03-11T11:08:06.157Z,1.53
2023-03-11T11:09:07.578Z,1.90
2023-03-11T11:10:11.784Z,1.10
2023-03-11T11:11:33.728Z,1.07
2023-03-11T11:12:35.178Z,0.90
2023-03-11T11:13:36.614Z,0.87
2023-03-11T11:14:45.072Z,0.80
2023-03-11T11:15:52.594Z,1.00
2023-03-11T11:16:54.092Z,0.83
2023-03-11T11:17:57.098Z,0.90
2023-03-11T11:19:02.143Z,1.33
2023-03-11T11:20:13.083Z,1.13
2023-03-11T11:21:27.631Z,0.90
2023-03-11T11:22:32.085Z,1.00
2023-03-11T11:23:36.154Z,0.90
2023-03-11T11:24:46.040Z,1.10
2023-03-11T11:25:56.935Z,1.00
2023-03-11T11:27:17.269Z,0.83
2023-03-11T11:28:19.677Z,1.20
2023-03-11T11:29:20.999Z,1.13
2023-03-11T11:30:23.152Z,0.90
2023-03-11T11:31:25.739Z,1.30
2023-03-11T11:32:27.225Z,1.20
2023-03-11T11:33:33.470Z,1.20
2023-03-11T11:34:34.992Z,1.20
2023-03-11T11:35:49.222Z,0.97
2023-03-11T11:36:51.285Z,0.87
2023-03-11T11:37:54.375Z,1.03
2023-03-11T11:38:56.251Z,1.00
2023-03-11T11:40:15.439Z,1.17
2023-03-11T11:41:18.427Z,1.03
2023-03-11T11:42:20.342Z,0.90
2023-03-11T11:43:25.044Z,1.10
2023-03-11T11:44:31.352Z,1.00
2023-03-11T11:45:35.767Z,1.30
2023-03-11T11:46:38.514Z,0.90
2023-03-11T11:47:43.086Z,0.87
2023-03-11T11:48:44.397Z,0.87
2023-03-11T11:49:55.962Z,1.10
2023-03-11T11:50:58.931Z,0.80
2023-03-11T11:52:09.538Z,0.90
2023-03-11T11:53:19.989Z,1.57
2023-03-11T11:54:33.288Z,0.80
2023-03-11T11:55:35.438Z,0.90
2023-03-11T11:56:36.848Z,0.80
2023-03-11T11:57:38.215Z,0.97
2023-03-11T11:58:40.936Z,1.00
2023-03-11T11:59:42.612Z,0.77
2023-03-11T12:00:56.270Z,0.97
2023-03-11T12:02:16.256Z,1.00
2023-03-11T12:03:35.616Z,0.87
2023-03-11T12:04:59.028Z,1.00
2023-03-11T12:06:02.902Z,0.90
2023-03-11T12:07:10.055Z,0.77
2023-03-11T12:08:19.959Z,1.20
2023-03-11T12:09:24.155Z,1.30
2023-03-11T12:10:30.701Z,1.50
2023-03-11T12:11:43.882Z,1.40
2023-03-11T12:12:51.971Z,1.00
2023-03-11T12:14:03.385Z,1.00
2023-03-11T12:15:23.407Z,1.20
2023-03-11T12:16:24.744Z,1.00
2023-03-11T12:17:27.419Z,1.43
2023-03-11T12:18:37.775Z,0.90
2023-03-11T12:19:49.696Z,1.00
2023-03-11T12:20:55.785Z,0.90
2023-03-11T12:21:57.211Z,0.93
2023-03-11T12:23:17.422Z,1.10
2023-03-11T12:24:32.607Z,1.10
2023-03-11T12:25:36.666Z,1.00
2023-03-11T12:26:41.025Z,0.97
2023-03-11T12:27:47.829Z,1.10
2023-03-11T12:28:58.726Z,1.40
2023-03-11T12:30:02.290Z,1.30
2023-03-11T12:31:07.354Z,1.30
2023-03-11T12:32:24.443Z,1.00
2023-03-11T12:33:34.957Z,1.00
2023-03-11T12:34:36.385Z,0.90
2023-03-11T12:35:37.802Z,1.23
2023-03-11T12:36:39.992Z,0.90
2023-03-11T12:37:41.314Z,1.07
2023-03-11T12:38:46.464Z,1.70
2023-03-11T12:39:47.864Z,1.20
2023-03-11T12:40:49.225Z,1.30
2023-03-11T12:42:10.746Z,5.57
2023-03-11T12:43:35.355Z,1.60
2023-03-11T12:44:37.383Z,1.40
2023-03-11T12:45:51.498Z,1.27
2023-03-11T12:46:58.820Z,1.47
2023-03-11T12:48:18.875Z,1.30
2023-03-11T12:49:24.305Z,1.00
2023-03-11T12:50:40.042Z,1.40
2023-03-11T12:51:41.486Z,1.20
2023-03-11T12:52:53.118Z,1.17
2023-03-11T12:53:55.135Z,1.73
2023-03-11T12:54:56.429Z,3.30
2023-03-11T12:56:04.303Z,1.57
2023-03-11T12:57:12.043Z,1.87
2023-03-11T12:58:27.271Z,1.00
2023-03-11T12:59:47.865Z,1.10
2023-03-11T13:01:07.859Z,1.17
2023-03-11T13:02:27.489Z,1.07
2023-03-11T13:03:40.796Z,1.37
2023-03-11T13:05:14.429Z,1.47
2023-03-11T13:06:21.680Z,1.83
2023-03-11T13:07:22.972Z,1.17
2023-03-11T13:08:28.329Z,1.20
2023-03-11T13:09:31.474Z,1.20
2023-03-11T13:10:43.622Z,1.40
2023-03-11T13:11:45.952Z,1.30
2023-03-11T13:12:48.991Z,1.30
2023-03-11T13:13:50.498Z,0.97
2023-03-11T13:15:11.782Z,1.20
2023-03-11T13:16:13.711Z,1.20
2023-03-11T13:17:26.569Z,0.93
2023-03-11T13:18:33.086Z,0.97
2023-03-11T13:19:35.800Z,0.97
2023-03-11T13:20:43.334Z,1.03
2023-03-11T13:21:44.695Z,1.00
2023-03-11T13:22:51.800Z,0.90
2023-03-11T13:24:13.066Z,0.90
2023-03-11T13:25:35.157Z,1.30
2023-03-11T13:26:40.483Z,1.40
2023-03-11T13:27:44.197Z,1.13
2023-03-11T13:28:51.794Z,1.23
2023-03-11T13:30:06.650Z,1.07
2023-03-11T13:31:27.999Z,2.73
2023-03-11T13:32:41.537Z,1.50
2023-03-11T13:33:53.414Z,1.27
2023-03-11T13:35:10.403Z,1.30
2023-03-11T13:36:21.194Z,1.03
2023-03-11T13:37:33.086Z,1.40
2023-03-11T13:38:53.299Z,1.00
2023-03-11T13:40:02.356Z,1.33
2023-03-11T13:41:12.509Z,1.43
2023-03-11T13:42:36.907Z,1.00
2023-03-11T13:43:43.179Z,1.20
2023-03-11T13:44:45.708Z,1.83
2023-03-11T13:45:52.294Z,1.10
2023-03-11T13:46:56.729Z,1.20
2023-03-11T13:48:00.596Z,1.30
2023-03-11T13:49:05.085Z,1.13
2023-03-11T13:50:06.566Z,1.20
2023-03-11T13:51:13.788Z,1.20
2023-03-11T13:52:17.068Z,1.40
2023-03-11T13:53:25.711Z,1.50
2023-03-11T13:54:38.999Z,1.20
2023-03-11T13:55:46.265Z,1.27
2023-03-11T13:57:01.081Z,1.07
2023-03-11T13:58:13.760Z,1.10
2023-03-11T13:59:16.111Z,1.13
2023-03-11T14:00:23.946Z,1.30
2023-03-11T14:01:25.439Z,1.37
2023-03-11T14:02:27.224Z,1.10
2023-03-11T14:03:32.269Z,1.20
2023-03-11T14:04:35.894Z,1.30
2023-03-11T14:05:39.873Z,1.10
2023-03-11T14:06:41.227Z,1.10
2023-03-11T14:07:42.844Z,1.23
2023-03-11T14:08:52.401Z,1.30
2023-03-11T14:10:18.151Z,1.50
2023-03-11T14:11:20.385Z,1.10
2023-03-11T14:12:21.672Z,1.97
2023-03-11T14:13:24.379Z,1.50
2023-03-11T14:14:37.988Z,1.83
2023-03-11T14:16:00.519Z,1.50
2023-03-11T14:17:03.934Z,1.33
2023-03-11T14:18:24.160Z,1.07
2023-03-11T14:19:27.279Z,1.90
2023-03-11T14:20:28.936Z,2.57
2023-03-11T14:21:31.743Z,2.40
2023-03-11T14:22:33.874Z,1.73